Time;durP1;ratioP1;P1;durP2;ratioP2;P2;SDS_P1;SDS_P2;PMS_P1;PMS_P2;Temp;Humidity;BMP_temperature;BMP_pressure;BME280_temperature;BME280_humidity;BME280_pressure;Samples;Min_cycle;Max_cycle;Signal;HPM_P1;HPM_P2
2023/01/18 00:01:38;;;;;;;14.07;6.78;;;;;;;-1.94;62.68;92809.38;4966612;28;20055;-75
2023/01/18 00:04:03;;;;;;;14.73;6.72;;;;;;;-1.99;61.94;92802.88;4965702;28;20102;-74
2023/01/18 00:06:29;;;;;;;13.50;6.82;;;;;;;-2.05;60.81;92803.56;4966342;28;20086;-75
2023/01/18 00:08:54;;;;;;;11.20;6.43;;;;;;;-2.11;62.89;92807.66;4968487;28;20507;-74
2023/01/18 00:11:19;;;;;;;10.48;5.85;;;;;;;-2.54;61.65;92805.31;4981003;28;20372;-74
2023/01/18 00:13:45;;;;;;;9.00;5.07;;;;;;;-2.35;62.93;92802.53;4965119;28;20060;-75
2023/01/18 00:16:18;;;;;;;10.23;5.95;;;;;;;-2.32;62.54;92803.00;4956745;28;20262;-76
2023/01/18 00:18:52;;;;;;;11.18;5.97;;;;;;;-2.29;62.57;92802.66;4962728;28;20432;-76
2023/01/18 00:21:17;;;;;;;13.80;6.72;;;;;;;-2.22;62.37;92799.38;4949073;28;20086;-73
2023/01/18 00:23:43;;;;;;;12.10;7.00;;;;;;;-2.21;62.52;92793.97;4980573;28;20631;-74
2023/01/18 00:26:09;;;;;;;12.63;6.63;;;;;;;-2.20;61.82;92800.03;4950601;28;20812;-73
2023/01/18 00:28:35;;;;;;;11.00;6.47;;;;;;;-2.24;62.16;92797.75;4950187;28;20131;-75
2023/01/18 00:31:00;;;;;;;12.07;7.00;;;;;;;-2.27;62.12;92789.47;4954565;28;20089;-75
2023/01/18 00:33:26;;;;;;;10.25;6.78;;;;;;;-2.29;61.82;92787.03;4948555;28;20070;-74
2023/01/18 00:36:00;;;;;;;8.77;5.25;;;;;;;-2.35;61.73;92792.91;4981035;28;20096;-75
2023/01/18 00:38:26;;;;;;;13.50;7.80;;;;;;;-2.34;64.04;92797.16;4949351;28;20753;-74
2023/01/18 00:40:51;;;;;;;8.43;4.15;;;;;;;-2.40;60.21;92796.03;4949531;28;20336;-74
2023/01/18 00:46:01;;;;;;;4.28;3.05;;;;;;;-2.52;56.81;92786.91;4980541;28;20133;-76
2023/01/18 00:48:26;;;;;;;10.80;6.07;;;;;;;-2.46;61.67;92783.66;4971777;28;20177;-74
2023/01/18 00:50:52;;;;;;;19.58;10.55;;;;;;;-2.43;62.49;92792.91;4980572;28;20574;-73
2023/01/18 00:53:17;;;;;;;18.35;10.80;;;;;;;-2.42;61.99;92794.53;4966744;28;20314;-74
2023/01/18 00:55:42;;;;;;;18.83;11.18;;;;;;;-2.47;62.16;92794.25;4948618;28;20167;-75
2023/01/18 00:58:08;;;;;;;18.17;9.25;;;;;;;-2.67;58.09;92799.81;4948475;28;20080;-75
2023/01/18 01:00:33;;;;;;;14.75;9.32;;;;;;;-2.82;62.28;92803.09;4964816;28;20058;-75
2023/01/18 01:02:59;;;;;;;11.55;6.10;;;;;;;-2.86;60.16;92801.78;4950367;28;20092;-74
2023/01/18 01:08:15;;;;;;;3.95;1.75;;;;;;;-4.83;48.17;92807.91;4965709;28;20489;-74
2023/01/18 01:10:41;;;;;;;10.10;5.45;;;;;;;-4.57;58.29;92807.09;4949401;28;20099;-75
2023/01/18 01:26:47;;;;;;;4.97;2.88;;;;;;;-4.57;48.18;92817.50;4979356;28;20150;-75
2023/01/18 01:29:12;;;;;;;3.03;1.63;;;;;;;-4.75;49.19;92822.75;4982629;28;20079;-76
2023/01/18 01:31:38;;;;;;;5.47;3.08;;;;;;;-5.04;50.21;92829.03;4951407;28;20593;-74
2023/01/18 01:34:03;;;;;;;3.33;2.05;;;;;;;-4.82;48.79;92825.16;4958731;28;20079;-74
2023/01/18 01:36:29;;;;;;;4.82;2.25;;;;;;;-4.62;57.73;92832.72;4985020;28;20499;-76
2023/01/18 01:38:54;;;;;;;9.65;4.07;;;;;;;-4.54;59.05;92830.19;4971812;28;20140;-74
2023/01/18 01:41:25;;;;;;;10.70;5.72;;;;;;;-3.72;61.17;92823.69;4954577;28;20127;-75
2023/01/18 01:43:55;;;;;;;12.57;6.43;;;;;;;-3.61;55.17;92824.34;4983639;28;20096;-74
2023/01/18 01:46:35;;;;;;;12.20;7.95;;;;;;;-3.25;62.09;92829.31;4977397;28;20115;-74
2023/01/18 01:49:06;;;;;;;14.80;8.18;;;;;;;-2.93;60.09;92838.09;4984094;28;20065;-74
2023/01/18 01:51:31;;;;;;;15.02;8.15;;;;;;;-2.80;60.59;92839.38;4981856;28;20093;-74
2023/01/18 01:53:58;;;;;;;13.00;7.65;;;;;;;-2.67;63.33;92844.94;4951195;28;20122;-73
2023/01/18 01:56:24;;;;;;;14.23;7.47;;;;;;;-2.60;61.16;92845.06;4965597;28;20088;-75
2023/01/18 01:58:50;;;;;;;6.40;3.30;;;;;;;-3.12;49.52;92841.84;4967462;28;20497;-73
2023/01/18 02:01:16;;;;;;;6.15;2.20;;;;;;;-3.29;52.81;92847.00;4966557;28;20102;-74
2023/01/18 02:03:41;;;;;;;6.90;4.00;;;;;;;-3.18;53.06;92845.91;4985910;28;20613;-75
2023/01/18 02:06:14;;;;;;;4.85;2.63;;;;;;;-3.54;47.08;92851.34;4966936;28;20099;-75
2023/01/18 02:08:39;;;;;;;6.70;3.85;;;;;;;-3.52;50.75;92852.03;4962815;28;20100;-74
2023/01/18 02:11:04;;;;;;;6.15;3.22;;;;;;;-3.36;55.06;92853.81;4985752;28;20562;-75
2023/01/18 02:13:30;;;;;;;7.43;3.75;;;;;;;-3.28;50.92;92850.44;4973421;28;20233;-74
2023/01/18 02:16:31;;;;;;;9.98;5.25;;;;;;;-3.33;54.57;92853.50;4985612;28;20097;-74
2023/01/18 02:19:12;;;;;;;8.52;5.10;;;;;;;-3.30;54.74;92853.19;4971562;28;20176;-74
2023/01/18 02:21:50;;;;;;;4.72;3.03;;;;;;;-3.61;52.54;92855.56;4975456;28;20812;-74
2023/01/18 02:24:25;;;;;;;13.05;7.28;;;;;;;-3.32;57.25;92856.94;4959268;28;20451;-74
2023/01/18 02:26:53;;;;;;;11.55;7.47;;;;;;;-2.94;60.95;92851.28;4974820;28;20105;-74
2023/01/18 02:29:49;;;;;;;10.25;6.30;;;;;;;-2.82;59.83;92862.19;4941116;28;20069;-74
2023/01/18 02:32:27;;;;;;;11.57;6.85;;;;;;;-2.75;59.47;92858.75;4982744;28;20542;-74
2023/01/18 02:35:07;;;;;;;15.32;8.30;;;;;;;-2.69;61.40;92859.06;4985189;28;20102;-74
2023/01/18 02:37:49;;;;;;;12.23;6.80;;;;;;;-2.71;61.27;92864.47;4985418;28;20696;-74
2023/01/18 02:40:29;;;;;;;13.48;7.82;;;;;;;-2.75;61.53;92863.97;4970898;28;20583;-74
2023/01/18 02:48:34;;;;;;;8.47;5.00;;;;;;;-3.03;59.60;92882.50;4960976;28;20137;-75
2023/01/18 02:50:59;;;;;;;9.13;6.10;;;;;;;-3.02;60.37;92876.31;4972907;28;20098;-74
2023/01/18 02:53:25;;;;;;;10.20;4.38;;;;;;;-3.19;57.42;92879.91;4957514;28;20073;-74
2023/01/18 02:56:02;;;;;;;9.48;6.25;;;;;;;-3.14;61.11;92881.03;4957336;28;20591;-74
2023/01/18 02:58:33;;;;;;;8.43;4.65;;;;;;;-3.13;57.49;92879.25;4967600;28;20184;-74
2023/01/18 03:01:03;;;;;;;9.35;5.97;;;;;;;-3.94;61.83;92890.09;4959267;28;20068;-75
2023/01/18 03:03:28;;;;;;;9.90;4.80;;;;;;;-4.67;62.73;92892.91;4962492;28;20253;-74
2023/01/18 03:05:57;;;;;;;4.20;2.35;;;;;;;-5.10;52.14;92897.91;4977222;28;20119;-74
2023/01/18 03:08:35;;;;;;;3.20;1.67;;;;;;;-5.56;59.24;92897.94;4978804;28;20148;-74
2023/01/18 03:11:06;;;;;;;4.80;2.80;;;;;;;-5.64;52.53;92903.88;4984615;28;20097;-73
2023/01/18 03:13:47;;;;;;;5.35;2.72;;;;;;;-5.86;54.63;92904.13;4956741;28;20074;-74
2023/01/18 03:16:21;;;;;;;9.30;4.85;;;;;;;-4.82;60.01;92909.00;4984873;28;20115;-73
2023/01/18 03:19:01;;;;;;;8.38;5.20;;;;;;;-4.35;58.59;92909.66;4975663;28;20099;-74
2023/01/18 03:21:32;;;;;;;10.70;2.20;;;;;;;-5.04;49.36;92914.66;4982669;28;20162;-74
2023/01/18 03:23:58;;;;;;;6.03;3.42;;;;;;;-5.22;60.57;92921.50;4974369;28;20396;-74
2023/01/18 03:26:24;;;;;;;6.15;2.95;;;;;;;-5.35;62.05;92916.66;4941356;28;20106;-74
2023/01/18 03:34:36;;;;;;;3.60;2.17;;;;;;;-6.29;54.27;92934.81;4984588;28;20119;-74
2023/01/18 03:37:07;;;;;;;3.05;2.13;;;;;;;-7.37;55.26;92938.31;4964391;28;20569;-74
2023/01/18 03:39:35;;;;;;;7.00;2.78;;;;;;;-6.79;59.80;92948.81;4977407;28;20204;-74
2023/01/18 03:42:13;;;;;;;1.85;1.73;;;;;;;-6.92;53.05;92949.06;4976909;28;20153;-74
2023/01/18 03:44:46;;;;;;;5.85;2.92;;;;;;;-6.14;60.05;92948.16;4943136;28;20058;-74
2023/01/18 03:47:11;;;;;;;8.20;4.30;;;;;;;-5.52;58.56;92945.97;4973962;28;20583;-74
2023/01/18 03:49:37;;;;;;;6.03;2.95;;;;;;;-4.85;60.86;92947.44;4974370;28;20067;-74
2023/01/18 03:52:08;;;;;;;4.50;2.58;;;;;;;-4.64;53.21;92948.91;4983859;28;20108;-74
2023/01/18 03:54:34;;;;;;;8.88;3.90;;;;;;;-4.37;61.69;92953.19;4972516;28;20201;-74
2023/01/18 03:57:16;;;;;;;8.32;4.60;;;;;;;-4.01;64.05;92954.84;4977778;28;20088;-74
2023/01/18 03:59:41;;;;;;;10.02;5.05;;;;;;;-3.73;62.82;92959.91;4980538;28;20169;-74
2023/01/18 04:02:07;;;;;;;6.25;4.25;;;;;;;-3.67;62.04;92955.88;4956263;28;20071;-74
2023/01/18 04:04:32;;;;;;;7.55;4.90;;;;;;;-3.59;61.35;92965.47;4958607;28;20152;-74
2023/01/18 04:06:58;;;;;;;8.00;4.25;;;;;;;-3.90;57.81;92966.81;4940579;28;20095;-74
2023/01/18 04:09:24;;;;;;;9.43;5.03;;;;;;;-3.75;61.80;92971.41;4983222;28;20616;-74
2023/01/18 04:11:50;;;;;;;4.60;2.60;;;;;;;-3.84;52.66;92967.97;4956521;28;20436;-74
2023/01/18 04:14:15;;;;;;;7.72;2.10;;;;;;;-4.42;49.54;92968.41;4968021;28;20118;-74
2023/01/18 04:16:40;;;;;;;7.18;3.58;;;;;;;-4.20;57.84;92976.69;4969674;28;20066;-74
2023/01/18 04:19:07;;;;;;;7.97;4.15;;;;;;;-3.98;57.54;92971.97;4982970;28;20145;-74
2023/01/18 04:21:33;;;;;;;6.40;3.95;;;;;;;-3.86;58.56;92970.72;4971727;28;20089;-75
2023/01/18 04:23:58;;;;;;;8.77;4.90;;;;;;;-3.75;59.41;92981.81;4983599;28;20530;-74
2023/01/18 04:26:24;;;;;;;7.15;4.13;;;;;;;-3.65;60.58;92977.31;4973460;28;20099;-75
2023/01/18 04:28:49;;;;;;;7.47;4.10;;;;;;;-3.57;60.08;92971.34;4971985;28;20085;-75
2023/01/18 04:31:14;;;;;;;7.53;4.70;;;;;;;-3.53;60.78;92977.88;4982832;28;20091;-74
2023/01/18 04:33:40;;;;;;;8.93;4.78;;;;;;;-3.49;59.11;92976.59;4983352;28;20163;-75
2023/01/18 04:36:06;;;;;;;8.45;4.78;;;;;;;-3.49;60.02;92978.38;4972591;28;20126;-74
2023/01/18 04:38:31;;;;;;;8.63;4.43;;;;;;;-3.50;59.84;92981.94;4982987;28;20102;-74
2023/01/18 04:41:04;;;;;;;7.97;4.05;;;;;;;-3.54;59.72;92991.81;4973542;28;20475;-74
2023/01/18 04:43:29;;;;;;;7.10;4.50;;;;;;;-3.57;59.11;92989.56;4983211;28;20190;-74
2023/01/18 04:45:55;;;;;;;8.90;4.65;;;;;;;-3.54;59.70;92991.81;4972578;28;20072;-74
2023/01/18 04:48:20;;;;;;;8.35;4.53;;;;;;;-3.53;59.49;92996.09;4983615;28;20539;-74
2023/01/18 04:50:47;;;;;;;9.68;4.50;;;;;;;-3.53;60.39;92998.69;4953997;28;20417;-74
2023/01/18 04:53:13;;;;;;;6.75;4.50;;;;;;;-3.52;60.25;93008.13;4982997;28;20066;-74
2023/01/18 04:55:38;;;;;;;5.68;3.45;;;;;;;-3.54;57.47;93008.25;4969680;28;20131;-74
2023/01/18 04:58:04;;;;;;;7.13;4.50;;;;;;;-3.59;59.46;93013.13;4982960;28;20310;-74
2023/01/18 05:00:29;;;;;;;6.68;3.80;;;;;;;-3.53;59.87;93009.88;4969914;28;20068;-74
2023/01/18 05:02:54;;;;;;;6.78;4.35;;;;;;;-3.46;59.65;93012.69;4982983;28;20421;-74
2023/01/18 05:05:20;;;;;;;9.23;4.53;;;;;;;-3.45;58.92;93016.94;4986631;28;20068;-74
2023/01/18 05:07:45;;;;;;;6.03;3.75;;;;;;;-3.60;58.55;93024.47;4977276;28;20085;-73
2023/01/18 05:10:11;;;;;;;8.38;3.95;;;;;;;-3.59;57.19;93023.53;4958467;28;20591;-74
2023/01/18 05:12:36;;;;;;;9.52;3.28;;;;;;;-3.67;52.62;93023.50;4987186;28;20076;-73
2023/01/18 05:15:02;;;;;;;8.20;3.55;;;;;;;-4.30;57.25;93029.56;4986666;28;20103;-74
2023/01/18 05:17:29;;;;;;;6.22;2.75;;;;;;;-4.71;51.51;93035.22;4987035;28;20072;-74
2023/01/18 05:19:54;;;;;;;6.30;3.13;;;;;;;-4.45;56.26;93034.47;4975766;28;20522;-74
2023/01/18 05:22:21;;;;;;;7.03;3.08;;;;;;;-4.58;57.69;93037.41;4976845;28;20175;-75
2023/01/18 05:24:46;;;;;;;4.88;2.70;;;;;;;-5.47;49.37;93042.31;4975292;28;20142;-74
2023/01/18 05:27:12;;;;;;;6.55;2.95;;;;;;;-4.90;54.71;93046.53;4978093;28;20574;-74
2023/01/18 05:29:38;;;;;;;5.85;3.08;;;;;;;-4.62;51.32;93046.47;4987533;28;20069;-74
2023/01/18 05:32:05;;;;;;;7.05;3.28;;;;;;;-4.35;55.28;93049.97;4959861;28;20370;-74
2023/01/18 05:34:30;;;;;;;8.00;3.20;;;;;;;-4.36;52.68;93057.91;4986479;28;20188;-74
2023/01/18 05:36:56;;;;;;;9.18;3.17;;;;;;;-4.14;49.38;93053.22;4987685;28;20143;-74
2023/01/18 05:39:22;;;;;;;8.27;2.92;;;;;;;-4.00;51.00;93047.50;4986849;28;20121;-74
2023/01/18 05:41:47;;;;;;;10.73;3.10;;;;;;;-3.95;51.77;93049.63;4976111;28;20536;-74
2023/01/18 05:44:13;;;;;;;8.63;3.83;;;;;;;-3.49;57.66;93053.81;4980826;28;20062;-74
2023/01/18 05:46:38;;;;;;;12.68;3.65;;;;;;;-3.53;50.49;93046.31;4986879;28;20094;-74
2023/01/18 05:49:03;;;;;;;8.80;3.67;;;;;;;-3.71;51.09;93053.34;4987657;28;20305;-74
2023/01/18 05:51:29;;;;;;;8.90;3.65;;;;;;;-3.34;55.54;93061.84;4986696;28;20409;-74
2023/01/18 05:53:55;;;;;;;6.40;3.40;;;;;;;-3.52;50.97;93054.94;4974626;28;20075;-74
2023/01/18 05:56:20;;;;;;;6.65;3.83;;;;;;;-3.45;57.36;93063.75;4984989;28;20082;-74
2023/01/18 05:58:45;;;;;;;5.55;3.72;;;;;;;-3.22;59.51;93073.63;4986403;28;20929;-75
2023/01/18 06:01:11;;;;;;;9.40;4.85;;;;;;;-3.14;59.08;93073.69;4957446;28;20059;-74
2023/01/18 06:03:37;;;;;;;8.77;4.45;;;;;;;-3.09;58.22;93073.19;4986159;28;20114;-74
2023/01/18 06:06:02;;;;;;;7.75;4.32;;;;;;;-3.07;58.95;93076.47;4972674;28;20513;-74
2023/01/18 06:08:28;;;;;;;9.95;4.90;;;;;;;-3.09;56.56;93073.19;4961868;28;20060;-74
2023/01/18 06:10:54;;;;;;;12.52;5.03;;;;;;;-3.09;56.28;93078.41;4984667;28;20124;-74
2023/01/18 06:13:20;;;;;;;9.45;5.10;;;;;;;-3.19;55.98;93086.31;4957379;28;20067;-74
2023/01/18 06:15:46;;;;;;;12.85;5.40;;;;;;;-3.22;55.54;93088.44;4974728;28;20150;-74
2023/01/18 06:18:11;;;;;;;7.97;4.45;;;;;;;-3.27;53.67;93092.31;4957815;28;20096;-74
2023/01/18 06:20:37;;;;;;;12.20;5.03;;;;;;;-3.34;48.50;93095.69;4977663;28;20147;-74
2023/01/18 06:23:02;;;;;;;8.15;4.40;;;;;;;-3.34;54.44;93100.88;4978436;28;20605;-74
2023/01/18 06:25:28;;;;;;;10.73;5.15;;;;;;;-3.38;54.91;93099.56;4973283;28;20430;-74
2023/01/18 06:27:53;;;;;;;14.15;5.75;;;;;;;-3.38;54.34;93107.38;4985193;28;20091;-74
2023/01/18 06:30:18;;;;;;;13.88;6.70;;;;;;;-3.38;53.81;93113.41;4985108;28;20083;-74
2023/01/18 06:32:44;;;;;;;16.40;6.28;;;;;;;-3.54;46.82;93112.31;4958950;28;20076;-74
2023/01/18 06:35:09;;;;;;;11.73;5.63;;;;;;;-3.73;45.35;93112.50;4977548;28;20100;-74
2023/01/18 06:37:35;;;;;;;9.02;4.65;;;;;;;-3.64;54.06;93114.19;4975966;28;20572;-74
2023/01/18 06:40:00;;;;;;;9.90;4.38;;;;;;;-3.49;56.84;93117.06;4990102;28;20117;-74
2023/01/18 06:42:25;;;;;;;7.65;4.15;;;;;;;-3.41;55.65;93114.53;4961413;28;20095;-74
2023/01/18 06:44:51;;;;;;;7.10;3.88;;;;;;;-3.40;54.97;93120.53;4978138;28;20058;-75
2023/01/18 06:47:18;;;;;;;5.28;3.42;;;;;;;-3.33;57.43;93129.34;4974582;28;20519;-74
2023/01/18 06:49:46;;;;;;;6.03;3.58;;;;;;;-3.32;57.06;93128.41;4973175;28;20070;-74
2023/01/18 06:52:12;;;;;;;6.80;3.42;;;;;;;-3.25;57.55;93135.59;4957612;28;20121;-74
2023/01/18 06:54:37;;;;;;;7.60;3.95;;;;;;;-3.49;51.88;93143.09;4985307;28;20141;-74
2023/01/18 06:57:03;;;;;;;7.13;3.80;;;;;;;-3.38;56.64;93136.81;4970564;28;20104;-74
2023/01/18 06:59:28;;;;;;;7.55;3.70;;;;;;;-3.28;57.50;93153.16;4973905;28;20564;-74
2023/01/18 07:01:53;;;;;;;6.25;3.42;;;;;;;-3.23;56.94;93157.88;4973374;28;20076;-74
2023/01/18 07:04:19;;;;;;;6.18;3.50;;;;;;;-3.28;55.45;93167.94;4986024;28;20101;-74
2023/01/18 07:06:44;;;;;;;6.32;3.20;;;;;;;-3.32;56.72;93170.03;4986303;28;20150;-74
2023/01/18 07:09:12;;;;;;;6.68;3.38;;;;;;;-3.26;56.13;93176.41;4956411;28;20271;-75
2023/01/18 07:11:41;;;;;;;7.03;3.55;;;;;;;-3.33;55.81;93172.81;4976495;28;20125;-74
2023/01/18 07:14:07;;;;;;;5.53;3.10;;;;;;;-3.30;55.08;93180.28;4975546;28;20142;-74
2023/01/18 07:16:33;;;;;;;6.13;3.17;;;;;;;-3.30;56.44;93185.47;4984858;28;20082;-75
2023/01/18 07:19:00;;;;;;;7.28;3.03;;;;;;;-3.33;53.77;93197.03;4984389;28;20111;-74
2023/01/18 07:21:28;;;;;;;4.68;2.90;;;;;;;-3.37;53.01;93197.50;4984772;28;20066;-74
2023/01/18 07:23:54;;;;;;;6.93;3.08;;;;;;;-3.50;52.27;93203.88;4971339;28;20189;-74
2023/01/18 07:26:19;;;;;;;10.43;3.58;;;;;;;-3.57;54.57;93203.66;4970100;28;20467;-74
2023/01/18 07:28:45;;;;;;;6.40;2.85;;;;;;;-3.92;51.18;93210.50;4978564;28;20059;-74
2023/01/18 07:31:10;;;;;;;6.85;3.35;;;;;;;-4.32;52.15;93218.56;4972465;28;20156;-74
2023/01/18 07:33:36;;;;;;;7.47;3.20;;;;;;;-4.24;53.12;93220.44;4985432;28;20071;-74
2023/01/18 07:36:03;;;;;;;7.70;3.15;;;;;;;-4.23;52.80;93226.44;4959899;28;20136;-75
2023/01/18 07:38:29;;;;;;;4.90;2.75;;;;;;;-4.40;52.38;93234.06;4953581;28;20637;-74
2023/01/18 07:41:08;;;;;;;5.75;3.00;;;;;;;-4.46;53.69;93238.06;4958668;28;20118;-73
2023/01/18 07:43:34;;;;;;;7.85;2.55;;;;;;;-4.47;52.70;93235.59;4957465;28;20111;-74
2023/01/18 07:46:00;;;;;;;6.00;2.80;;;;;;;-4.29;53.08;93243.44;4973623;28;20137;-74
2023/01/18 07:48:26;;;;;;;7.25;3.35;;;;;;;-3.84;46.72;93238.38;4985230;28;20065;-74
2023/01/18 07:51:01;;;;;;;6.68;3.22;;;;;;;-4.30;48.83;93247.84;4984330;28;20588;-74
2023/01/18 07:53:27;;;;;;;7.28;3.15;;;;;;;-4.10;52.04;93252.91;4969568;28;20099;-74
2023/01/18 07:55:52;;;;;;;6.88;3.08;;;;;;;-3.66;55.78;93247.00;4980601;28;20114;-75
2023/01/18 07:58:18;;;;;;;6.70;2.90;;;;;;;-3.55;54.34;93252.94;4971528;28;20083;-75
2023/01/18 08:00:44;;;;;;;6.15;3.20;;;;;;;-3.42;54.43;93265.59;4982774;28;20075;-75
2023/01/18 08:03:13;;;;;;;4.03;2.83;;;;;;;-3.70;51.58;93263.88;4955481;28;20438;-74
2023/01/18 08:05:39;;;;;;;7.72;3.00;;;;;;;-3.63;50.66;93266.72;4961666;28;20130;-74
2023/01/18 08:08:07;;;;;;;6.70;2.83;;;;;;;-3.40;53.52;93268.84;4956492;28;20099;-75
2023/01/18 08:10:33;;;;;;;5.07;3.10;;;;;;;-3.02;55.27;93272.06;4969680;28;20117;-75
2023/01/18 08:12:58;;;;;;;5.32;2.90;;;;;;;-3.15;53.34;93271.66;4983727;28;20526;-75
2023/01/18 08:15:23;;;;;;;7.32;2.80;;;;;;;-3.39;52.09;93283.50;4982949;28;20108;-75
2023/01/18 08:17:50;;;;;;;5.10;2.85;;;;;;;-3.57;53.21;93289.53;4984158;28;20239;-74
2023/01/18 08:20:15;;;;;;;7.85;2.90;;;;;;;-3.73;52.91;93289.38;4983006;28;20555;-75
2023/01/18 08:22:41;;;;;;;6.68;3.20;;;;;;;-3.64;53.03;93288.47;4973217;28;20091;-75
2023/01/18 08:25:06;;;;;;;5.30;2.75;;;;;;;-2.97;55.79;93287.25;4969640;28;20082;-75
2023/01/18 08:27:32;;;;;;;6.95;3.20;;;;;;;-2.81;50.01;93294.38;4983076;28;20104;-75
2023/01/18 08:29:57;;;;;;;8.88;3.70;;;;;;;-2.86;50.13;93301.00;4981272;28;20056;-75
2023/01/18 08:32:23;;;;;;;6.35;3.10;;;;;;;-2.64;57.76;93310.09;4971114;28;20123;-75
2023/01/18 08:34:48;;;;;;;7.88;3.42;;;;;;;-2.58;48.54;93309.47;4973226;28;20077;-75
2023/01/18 08:37:13;;;;;;;8.45;3.30;;;;;;;-2.73;50.59;93306.63;4973607;28;20068;-75
2023/01/18 08:39:39;;;;;;;8.13;3.75;;;;;;;-2.64;49.78;93316.13;4981370;28;20099;-75
2023/01/18 08:42:04;;;;;;;6.03;3.50;;;;;;;-2.45;54.96;93324.72;4974992;28;20100;-61
2023/01/18 08:44:30;;;;;;;6.60;3.85;;;;;;;-2.22;57.75;93325.97;4976825;28;20300;-62
2023/01/18 08:46:55;;;;;;;7.68;4.03;;;;;;;-2.13;56.60;93322.44;4978458;28;20030;-61
2023/01/18 08:49:21;;;;;;;7.22;3.72;;;;;;;-2.03;56.69;93327.53;4978215;28;20018;-63
2023/01/18 08:51:46;;;;;;;12.63;4.85;;;;;;;-1.84;57.28;93326.47;4975589;28;20041;-62
2023/01/18 08:54:11;;;;;;;10.43;4.20;;;;;;;-2.13;56.30;93333.66;4978808;28;20096;-63
2023/01/18 08:56:37;;;;;;;10.77;4.57;;;;;;;-2.12;59.77;93339.72;4979723;28;20041;-64
2023/01/18 08:59:06;;;;;;;9.00;4.85;;;;;;;-1.61;53.76;93334.53;4979616;28;20100;-61
2023/01/18 09:01:32;;;;;;;10.48;5.95;;;;;;;-1.37;59.85;93339.97;4978088;28;20043;-63
2023/01/18 09:03:57;;;;;;;8.25;5.13;;;;;;;-1.59;59.11;93344.81;4978707;28;20038;-63
2023/01/18 09:06:23;;;;;;;7.10;4.75;;;;;;;-2.01;59.97;93349.88;4977510;28;20444;-64
2023/01/18 09:08:48;;;;;;;9.75;4.03;;;;;;;-2.33;58.32;93353.94;4977586;28;20473;-62
2023/01/18 09:11:14;;;;;;;8.90;4.13;;;;;;;-2.59;54.74;93353.91;4956639;28;20054;-62
2023/01/18 09:13:40;;;;;;;10.52;5.35;;;;;;;-2.66;55.38;93351.13;4979376;28;20044;-62
2023/01/18 09:16:06;;;;;;;12.07;5.10;;;;;;;-2.67;56.11;93358.13;4977104;28;20054;-63
2023/01/18 09:18:32;;;;;;;11.77;5.22;;;;;;;-2.90;55.43;93357.78;4972387;28;20042;-63
2023/01/18 09:20:57;;;;;;;12.85;6.30;;;;;;;-2.89;56.15;93367.22;4974250;28;20030;-61
2023/01/18 09:23:23;;;;;;;11.70;5.75;;;;;;;-2.89;55.52;93372.44;4974332;28;20046;-62
2023/01/18 09:25:48;;;;;;;18.95;6.88;;;;;;;-2.84;57.99;93372.81;4974737;28;20031;-63
2023/01/18 09:28:15;;;;;;;12.05;6.13;;;;;;;-3.01;53.49;93380.50;4951200;28;20031;-64
2023/01/18 09:30:41;;;;;;;14.57;6.20;;;;;;;-3.16;53.44;93384.56;4972958;28;20046;-63
2023/01/18 09:33:06;;;;;;;11.40;6.25;;;;;;;-3.33;52.75;93381.00;4974358;28;20188;-63
2023/01/18 09:35:32;;;;;;;15.98;6.82;;;;;;;-3.27;54.87;93390.78;4975770;28;20100;-63
2023/01/18 09:37:58;;;;;;;14.20;6.93;;;;;;;-3.20;54.25;93391.03;4963440;28;20041;-63
2023/01/18 09:40:29;;;;;;;9.80;5.15;;;;;;;-3.43;52.53;93399.28;4978231;28;20236;-63
2023/01/18 09:42:54;;;;;;;6.25;3.20;;;;;;;-3.71;53.91;93405.28;4966705;28;20042;-64
2023/01/18 09:45:31;;;;;;;13.52;6.65;;;;;;;-3.61;58.75;93413.03;4962712;28;20049;-62
2023/01/18 09:48:04;;;;;;;17.05;7.53;;;;;;;-3.77;55.34;93411.06;4976991;28;20314;-63
2023/01/18 09:50:32;;;;;;;11.00;5.55;;;;;;;-3.75;55.13;93414.34;4961832;28;20049;-62
2023/01/18 09:53:24;;;;;;;12.48;5.90;;;;;;;-3.48;56.50;93412.72;4970613;28;20026;-62
2023/01/18 09:56:15;;;;;;;12.63;4.80;;;;;;;-3.63;54.74;93420.19;4979165;28;20035;-62
2023/01/18 09:59:09;;;;;;;20.52;8.75;;;;;;;-3.50;53.79;93429.44;4977614;28;20043;-62
2023/01/18 10:01:34;;;;;;;13.63;7.53;;;;;;;-2.80;56.68;93426.25;4979366;28;20472;-63
2023/01/18 10:04:07;;;;;;;13.77;6.82;;;;;;;-3.28;54.13;93434.25;4978128;28;20041;-63
2023/01/18 10:06:51;;;;;;;11.40;6.30;;;;;;;-3.34;53.37;93434.81;4970491;28;21213;-63
2023/01/18 10:09:23;;;;;;;10.57;3.70;;;;;;;-3.51;54.66;93428.59;4969941;28;20479;-60
2023/01/18 10:11:53;;;;;;;13.43;5.85;;;;;;;-3.40;54.95;93438.81;4965871;28;20533;-63
2023/01/18 10:14:41;;;;;;;10.13;3.28;;;;;;;-3.61;55.68;93446.88;4968468;28;20034;-63
2023/01/18 10:17:12;;;;;;;14.50;5.55;;;;;;;-3.75;54.39;93448.16;4983753;28;20511;-60
2023/01/18 10:19:38;;;;;;;10.10;4.57;;;;;;;-3.85;55.67;93455.16;4979273;28;20049;-63
2023/01/18 10:22:16;;;;;;;6.60;3.33;;;;;;;-3.43;53.61;93451.31;4963699;28;20038;-62
2023/01/18 10:24:47;;;;;;;5.30;3.23;;;;;;;-3.95;55.98;93452.59;4981884;28;20057;-62
2023/01/18 10:27:38;;;;;;;5.32;3.10;;;;;;;-4.10;57.02;93452.25;4985404;28;20031;-62
2023/01/18 10:30:19;;;;;;;12.05;4.18;;;;;;;-4.57;59.40;93453.81;4937985;28;20193;-62
2023/01/18 10:32:54;;;;;;;7.03;3.22;;;;;;;-4.87;59.23;93458.19;4980850;28;20056;-68
2023/01/18 10:35:31;;;;;;;8.88;5.15;;;;;;;-4.52;58.77;93451.63;4956990;28;20045;-61
2023/01/18 10:37:59;;;;;;;14.55;5.65;;;;;;;-4.35;59.39;93452.69;4985554;28;20030;-64
2023/01/18 10:40:25;;;;;;;5.22;3.28;;;;;;;-4.53;58.99;93456.94;4954651;28;20521;-57
2023/01/18 10:42:51;;;;;;;13.02;5.05;;;;;;;-4.86;60.23;93460.66;4979469;28;20050;-58
2023/01/18 10:45:28;;;;;;;8.98;4.35;;;;;;;-4.74;60.40;93461.34;4974617;28;20042;-63
2023/01/18 10:47:55;;;;;;;7.55;4.15;;;;;;;-4.77;60.13;93466.81;4979467;28;20657;-61
2023/01/18 10:50:21;;;;;;;13.73;7.03;;;;;;;-4.36;58.49;93471.00;4967796;28;20042;-63
2023/01/18 10:52:48;;;;;;;17.23;7.43;;;;;;;-4.09;60.14;93467.69;4977451;28;20156;-63
2023/01/18 10:55:17;;;;;;;18.27;9.43;;;;;;;-3.41;57.05;93468.41;4979511;28;20042;-62
2023/01/18 10:57:45;;;;;;;;;;;;;;;-3.19;58.00;93465.56;4966056;28;20704;-63
2023/01/18 11:00:32;;;;;;;14.27;6.60;;;;;;;-3.07;55.83;93468.78;4963246;28;20004;-63
2023/01/18 11:02:58;;;;;;;15.65;7.43;;;;;;;-2.86;54.72;93476.31;4979275;28;20085;-63
2023/01/18 11:05:43;;;;;;;7.47;3.80;;;;;;;-2.90;55.46;93475.81;4958145;28;20026;-62
2023/01/18 11:08:10;;;;;;;21.45;10.35;;;;;;;-2.70;57.63;93475.66;4967124;28;20038;-61
2023/01/18 11:10:36;;;;;;;18.60;9.13;;;;;;;-2.64;54.04;93476.84;4981535;28;20042;-62
2023/01/18 11:13:02;;;;;;;14.45;5.35;;;;;;;-2.46;54.63;93469.03;4964586;28;20455;-64
2023/01/18 11:15:27;;;;;;;21.40;9.93;;;;;;;-2.36;57.19;93474.16;4981208;28;20119;-62
2023/01/18 11:17:56;;;;;;;21.88;9.32;;;;;;;-2.12;56.85;93480.53;4964991;28;20037;-64
2023/01/18 11:20:43;;;;;;;12.25;6.40;;;;;;;-2.11;51.20;93482.16;4982163;28;20113;-62
2023/01/18 11:23:08;;;;;;;11.45;6.35;;;;;;;-2.30;54.39;93475.34;4966771;28;20570;-64
2023/01/18 11:26:13;;;;;;;10.50;5.40;;;;;;;-1.85;54.06;93476.97;4980284;28;20080;-64
2023/01/18 11:29:06;;;;;;;16.25;7.03;;;;;;;-2.27;53.37;93478.44;4919491;29;20299;-61
2023/01/18 11:31:44;;;;;;;14.43;6.00;;;;;;;-2.14;54.26;93485.88;4968072;28;20038;-62
2023/01/18 11:34:18;;;;;;;24.85;11.70;;;;;;;-1.76;53.74;93484.84;4978753;28;20498;-61
2023/01/18 11:36:44;;;;;;;18.98;9.45;;;;;;;-1.51;52.59;93483.19;4968448;28;20051;-62
2023/01/18 11:39:21;;;;;;;28.15;16.58;;;;;;;-1.14;56.57;93488.22;4967886;28;20503;-61
2023/01/18 11:41:47;;;;;;;9.93;5.50;;;;;;;-1.64;50.85;93490.59;4979112;28;20442;-60
2023/01/18 11:44:24;;;;;;;25.05;12.55;;;;;;;-1.42;51.39;93489.28;4979914;28;20049;-64
2023/01/18 11:46:51;;;;;;;16.75;5.60;;;;;;;-1.56;49.99;93489.84;4952158;28;20499;-61
2023/01/18 11:49:29;;;;;;;27.50;12.63;;;;;;;-1.40;51.49;93487.31;4978606;28;20061;-62
2023/01/18 11:52:01;;;;;;;15.07;7.88;;;;;;;-0.84;49.28;93481.63;4977183;28;20045;-62
2023/01/18 11:54:45;;;;;;;11.45;4.88;;;;;;;-0.76;48.32;93483.47;4971824;28;20042;-63
2023/01/18 11:57:11;;;;;;;11.70;5.70;;;;;;;-1.23;49.20;93493.41;4977923;28;20033;-63
2023/01/18 11:59:41;;;;;;;20.35;12.73;;;;;;;-1.10;50.02;93484.31;4966788;28;20406;-63
2023/01/18 12:02:35;;;;;;;13.57;7.82;;;;;;;-0.89;47.94;93502.22;4982445;28;20279;-61
2023/01/18 12:05:13;;;;;;;25.58;12.68;;;;;;;-1.16;50.44;93498.81;4976873;28;20141;-62
2023/01/18 12:08:30;;;;;;;9.48;5.28;;;;;;;-1.00;48.07;93500.69;4979820;28;20046;-60